createdAt,value
2018-08-31T00:00:18.176Z,10.69
2018-08-31T00:04:30.569Z,10.59
2018-08-31T00:07:47.083Z,10.51
2018-08-31T00:10:56.821Z,10.45
2018-08-31T00:21:08.503Z,10.51
2018-08-31T00:24:22.231Z,10.57
2018-08-31T00:27:35.997Z,10.54
2018-08-31T00:30:49.602Z,10.47
2018-08-31T00:34:34.660Z,10.47
2018-08-31T00:38:23.407Z,10.45
2018-08-31T00:41:35.868Z,10.46
2018-08-31T00:44:49.600Z,10.50
2018-08-31T00:47:51.796Z,10.55
2018-08-31T00:50:54.085Z,10.63
2018-08-31T00:53:56.300Z,10.61
2018-08-31T00:56:58.483Z,10.62
2018-08-31T01:00:01.500Z,10.64
2018-08-31T01:03:03.697Z,10.60
2018-08-31T01:06:05.950Z,10.57
2018-08-31T01:09:08.179Z,10.54
2018-08-31T01:12:10.371Z,10.55
2018-08-31T01:15:12.660Z,10.48
2018-08-31T01:18:14.887Z,10.46
2018-08-31T01:21:17.203Z,10.47
2018-08-31T01:24:19.409Z,10.44
2018-08-31T01:27:21.613Z,10.41
2018-08-31T01:30:23.903Z,10.43
2018-08-31T01:33:26.076Z,10.40
2018-08-31T01:36:28.396Z,10.39
2018-08-31T01:39:30.574Z,10.39
2018-08-31T01:42:32.815Z,10.39
2018-08-31T01:45:35.054Z,10.39
2018-08-31T01:48:37.305Z,10.41
2018-08-31T01:51:39.585Z,10.40
2018-08-31T01:54:41.864Z,10.42
2018-08-31T01:57:44.111Z,10.45
2018-08-31T02:00:46.315Z,10.45
2018-08-31T02:03:48.668Z,10.42
2018-08-31T02:06:50.992Z,10.41
2018-08-31T02:09:53.214Z,10.36
2018-08-31T02:12:55.613Z,10.41
2018-08-31T02:15:57.950Z,10.47
2018-08-31T02:19:00.258Z,10.50
2018-08-31T02:22:02.475Z,10.52
2018-08-31T02:25:04.736Z,10.51
2018-08-31T02:28:06.966Z,10.46
2018-08-31T02:31:09.122Z,10.09
2018-08-31T02:34:11.380Z,9.97
2018-08-31T02:37:13.741Z,9.97
2018-08-31T02:40:15.920Z,9.98
2018-08-31T02:43:18.208Z,10.02
2018-08-31T02:46:21.427Z,9.98
2018-08-31T02:49:23.659Z,9.93
2018-08-31T02:52:25.914Z,9.92
2018-08-31T02:55:28.136Z,9.97
2018-08-31T02:58:30.398Z,9.97
2018-08-31T03:01:32.674Z,10.02
2018-08-31T03:04:34.939Z,10.11
2018-08-31T03:07:37.212Z,10.15
2018-08-31T03:10:39.496Z,10.29
2018-08-31T03:13:41.668Z,10.42
2018-08-31T03:16:43.836Z,10.47
2018-08-31T03:19:46.104Z,10.64
2018-08-31T03:22:48.279Z,10.75
2018-08-31T03:25:50.512Z,10.84
2018-08-31T03:28:52.876Z,10.88
2018-08-31T03:31:55.065Z,10.93
2018-08-31T03:34:57.233Z,10.88
2018-08-31T03:37:59.479Z,10.96
2018-08-31T03:41:01.672Z,11.00
2018-08-31T03:44:03.823Z,10.92
2018-08-31T03:47:05.931Z,10.94
2018-08-31T03:50:08.232Z,10.96
2018-08-31T03:53:10.646Z,10.99
2018-08-31T03:56:12.834Z,11.06
2018-08-31T03:59:15.089Z,10.94
2018-08-31T04:02:17.226Z,10.76
2018-08-31T04:05:19.561Z,10.70
2018-08-31T04:08:21.815Z,10.67
2018-08-31T04:11:24.062Z,10.77
2018-08-31T04:14:26.259Z,10.95
2018-08-31T04:17:28.631Z,10.93
2018-08-31T04:20:30.932Z,10.99
2018-08-31T04:23:33.108Z,10.95
2018-08-31T04:26:35.356Z,11.10
2018-08-31T04:29:37.659Z,11.18
2018-08-31T04:32:39.891Z,11.26
2018-08-31T04:35:42.195Z,11.35
2018-08-31T04:38:44.388Z,11.38
2018-08-31T04:41:46.667Z,11.36
2018-08-31T04:44:48.888Z,11.25
2018-08-31T04:47:51.093Z,11.10
2018-08-31T04:50:53.242Z,11.05
2018-08-31T04:53:55.508Z,11.03
2018-08-31T04:56:57.745Z,11.11
2018-08-31T04:59:59.915Z,11.16
2018-08-31T05:03:02.205Z,11.19
2018-08-31T05:06:05.046Z,11.19
2018-08-31T05:09:08.558Z,11.25
2018-08-31T05:12:10.742Z,11.38
2018-08-31T05:15:12.986Z,11.46
2018-08-31T05:18:15.428Z,11.43
2018-08-31T05:21:17.606Z,11.58
2018-08-31T05:24:19.873Z,11.63
2018-08-31T05:27:22.052Z,11.55
2018-08-31T05:30:24.238Z,11.43
2018-08-31T05:33:26.489Z,11.40
2018-08-31T05:36:28.661Z,11.41
2018-08-31T05:39:30.850Z,11.55
2018-08-31T05:42:33.021Z,11.68
2018-08-31T05:45:35.300Z,11.91
2018-08-31T05:48:37.793Z,12.15
2018-08-31T05:51:40.040Z,12.39
2018-08-31T05:54:42.272Z,12.59
2018-08-31T05:57:44.544Z,12.73
2018-08-31T06:00:46.777Z,12.81
2018-08-31T06:03:48.943Z,12.94
2018-08-31T06:06:51.083Z,13.02
2018-08-31T06:09:53.285Z,13.20
2018-08-31T06:12:55.608Z,13.28
2018-08-31T06:15:58.032Z,13.27
2018-08-31T06:19:00.217Z,13.36
2018-08-31T06:22:03.842Z,13.32
2018-08-31T06:25:06.466Z,13.35
2018-08-31T06:28:08.708Z,13.37
2018-08-31T06:31:10.963Z,13.42
2018-08-31T06:34:13.294Z,13.49
2018-08-31T06:37:16.146Z,13.50
2018-08-31T06:40:18.411Z,13.49
2018-08-31T06:43:20.599Z,13.58
2018-08-31T06:46:22.764Z,13.58
2018-08-31T06:49:24.989Z,13.64
2018-08-31T06:52:27.255Z,13.77
2018-08-31T06:55:29.487Z,13.86
2018-08-31T06:58:31.670Z,13.90
2018-08-31T07:01:33.944Z,13.87
2018-08-31T07:04:36.160Z,13.95
2018-08-31T07:07:38.757Z,13.93
2018-08-31T07:10:41.000Z,13.95
2018-08-31T07:13:43.302Z,13.97
2018-08-31T07:16:45.541Z,14.03
2018-08-31T07:19:47.851Z,14.32
2018-08-31T07:22:50.095Z,14.51
2018-08-31T07:25:52.380Z,14.56
2018-08-31T07:28:54.653Z,14.93
2018-08-31T07:31:56.834Z,15.44
2018-08-31T07:34:59.027Z,16.46
2018-08-31T07:38:01.256Z,16.77
2018-08-31T07:41:03.384Z,16.85
2018-08-31T07:44:05.792Z,17.19
2018-08-31T07:47:08.091Z,16.68
2018-08-31T07:50:10.284Z,16.07
2018-08-31T07:53:12.503Z,15.93
2018-08-31T07:56:14.610Z,15.79
2018-08-31T07:59:16.923Z,16.02
2018-08-31T08:02:19.217Z,16.49
2018-08-31T08:05:21.565Z,16.66
2018-08-31T08:08:23.851Z,17.06
2018-08-31T08:11:26.198Z,17.61
2018-08-31T08:14:28.470Z,17.43
2018-08-31T08:17:30.631Z,17.89
2018-08-31T08:20:32.788Z,18.84
2018-08-31T08:23:35.023Z,18.50
2018-08-31T08:26:37.135Z,18.64
2018-08-31T08:29:39.468Z,18.66
2018-08-31T08:32:41.709Z,19.08
2018-08-31T08:35:43.979Z,18.97
2018-08-31T08:38:46.179Z,18.27
2018-08-31T08:41:48.451Z,17.82
2018-08-31T08:44:50.687Z,17.94
2018-08-31T08:47:52.886Z,17.68
2018-08-31T08:50:55.151Z,17.71
2018-08-31T08:53:57.301Z,17.45
2018-08-31T08:56:59.464Z,17.02
2018-08-31T09:00:01.849Z,17.07
2018-08-31T09:03:04.155Z,17.07
2018-08-31T09:06:06.389Z,17.76
2018-08-31T09:09:09.352Z,18.02
2018-08-31T09:12:11.645Z,18.46
2018-08-31T09:15:13.836Z,18.21
2018-08-31T09:18:16.124Z,18.42
2018-08-31T09:21:18.421Z,18.93
2018-08-31T09:24:21.036Z,19.18
2018-08-31T09:27:27.818Z,18.91
2018-08-31T09:30:36.107Z,18.37
2018-08-31T09:33:38.325Z,18.34
2018-08-31T09:36:40.656Z,17.69
2018-08-31T09:39:42.844Z,17.72
2018-08-31T09:42:44.976Z,18.08
2018-08-31T09:45:47.202Z,17.86
2018-08-31T09:48:49.488Z,17.84
2018-08-31T09:51:51.737Z,18.79
2018-08-31T09:54:54.024Z,18.93
2018-08-31T09:57:56.528Z,18.65
2018-08-31T10:01:05.492Z,18.81
2018-08-31T10:04:07.778Z,18.68
2018-08-31T10:07:10.073Z,18.47
2018-08-31T10:10:12.455Z,18.30
2018-08-31T10:13:15.055Z,18.93
2018-08-31T10:16:17.327Z,19.44
2018-08-31T10:19:19.603Z,19.33
2018-08-31T10:22:21.910Z,19.00
2018-08-31T10:25:24.128Z,19.25
2018-08-31T10:28:26.474Z,19.61
2018-08-31T10:31:28.854Z,19.98
2018-08-31T10:34:31.123Z,20.11
2018-08-31T10:37:33.420Z,19.68
2018-08-31T10:40:35.708Z,20.28
2018-08-31T10:43:37.984Z,20.71
2018-08-31T10:46:40.351Z,21.54
2018-08-31T10:49:42.437Z,22.28
2018-08-31T10:52:44.734Z,23.05
2018-08-31T10:55:47.217Z,23.19
2018-08-31T10:58:49.636Z,22.96
2018-08-31T11:01:51.933Z,22.53
2018-08-31T11:04:54.234Z,22.18
2018-08-31T11:11:04.343Z,22.98
2018-08-31T11:14:06.624Z,23.45
2018-08-31T11:17:08.835Z,23.16
2018-08-31T11:20:11.079Z,23.13
2018-08-31T11:23:13.340Z,22.56
2018-08-31T11:26:15.648Z,21.65
2018-08-31T11:29:17.989Z,20.72
2018-08-31T11:32:20.243Z,20.95
2018-08-31T11:35:22.489Z,20.75
2018-08-31T11:38:24.864Z,20.65
2018-08-31T11:41:27.067Z,21.36
2018-08-31T11:44:29.349Z,21.68
2018-08-31T11:48:56.133Z,21.05
2018-08-31T11:51:58.418Z,20.86
2018-08-31T11:55:00.798Z,21.49
2018-08-31T11:58:03.064Z,21.85
2018-08-31T12:01:06.433Z,22.20
2018-08-31T12:04:08.672Z,22.28
2018-08-31T12:07:10.974Z,22.01
2018-08-31T12:10:13.165Z,22.47
2018-08-31T12:13:15.364Z,22.73
2018-08-31T12:16:17.559Z,22.75
2018-08-31T12:19:19.811Z,22.42
2018-08-31T12:22:22.137Z,22.06
2018-08-31T12:25:24.365Z,21.83
2018-08-31T12:28:26.640Z,21.68
2018-08-31T12:31:28.932Z,22.72
2018-08-31T12:34:31.221Z,23.31
2018-08-31T12:37:33.569Z,23.38
2018-08-31T12:40:35.984Z,22.92
2018-08-31T12:43:38.372Z,23.02
2018-08-31T12:46:40.566Z,22.72
2018-08-31T12:49:42.846Z,21.94
2018-08-31T12:52:45.059Z,21.38
2018-08-31T12:55:47.340Z,21.05
2018-08-31T12:58:50.296Z,20.91
2018-08-31T13:01:52.662Z,21.21
2018-08-31T13:04:54.924Z,21.35
2018-08-31T13:07:57.153Z,21.30
2018-08-31T13:10:59.380Z,20.81
2018-08-31T13:14:01.645Z,20.57
2018-08-31T13:17:03.950Z,20.64
2018-08-31T13:20:06.276Z,20.20
2018-08-31T13:23:08.499Z,20.14
2018-08-31T13:26:10.851Z,20.06
2018-08-31T13:29:13.061Z,19.96
2018-08-31T13:32:15.298Z,19.79
2018-08-31T13:35:17.480Z,19.95
2018-08-31T13:38:19.982Z,19.86
2018-08-31T13:41:22.083Z,19.91
2018-08-31T13:44:24.383Z,20.08
2018-08-31T13:47:26.637Z,20.57
2018-08-31T13:50:28.830Z,21.00
2018-08-31T13:53:31.155Z,21.22
2018-08-31T13:56:33.976Z,21.48
2018-08-31T13:59:36.284Z,21.44
2018-08-31T14:02:38.535Z,21.48
2018-08-31T14:05:40.768Z,21.79
2018-08-31T14:08:43.028Z,22.20
2018-08-31T14:11:45.277Z,22.71
2018-08-31T14:14:47.557Z,22.09
2018-08-31T14:17:49.743Z,21.54
2018-08-31T14:20:52.009Z,21.76
2018-08-31T14:23:54.207Z,22.45
2018-08-31T14:26:56.714Z,22.72
2018-08-31T14:29:59.000Z,21.99
2018-08-31T14:33:01.292Z,21.53
2018-08-31T14:36:03.527Z,21.84
2018-08-31T14:39:07.950Z,22.45
2018-08-31T14:42:10.177Z,22.88
2018-08-31T14:45:12.456Z,22.72
2018-08-31T14:48:14.719Z,22.63
2018-08-31T14:51:17.905Z,22.56
2018-08-31T14:54:20.252Z,23.31
2018-08-31T14:57:22.524Z,23.85
2018-08-31T15:00:24.730Z,22.97
2018-08-31T15:03:26.995Z,22.16
2018-08-31T15:06:29.148Z,22.01
2018-08-31T15:09:31.447Z,22.32
2018-08-31T15:12:33.624Z,21.95
2018-08-31T15:15:35.975Z,21.76
2018-08-31T15:18:38.321Z,21.52
2018-08-31T15:21:40.595Z,21.57
2018-08-31T15:24:42.923Z,21.78
2018-08-31T15:27:45.245Z,21.78
2018-08-31T15:30:47.676Z,21.61
2018-08-31T15:33:49.999Z,21.37
2018-08-31T15:36:52.274Z,20.79
2018-08-31T15:39:54.464Z,20.45
2018-08-31T15:42:56.732Z,20.59
2018-08-31T15:45:59.103Z,21.05
2018-08-31T15:49:01.461Z,21.50
2018-08-31T15:52:03.763Z,21.58
2018-08-31T15:55:06.045Z,21.70
2018-08-31T15:58:08.242Z,21.17
2018-08-31T16:01:10.401Z,20.75
2018-08-31T16:04:12.581Z,20.31
2018-08-31T16:07:14.796Z,20.17
2018-08-31T16:10:16.962Z,20.05
2018-08-31T16:13:19.292Z,19.88
2018-08-31T16:16:21.680Z,19.68
2018-08-31T16:19:23.855Z,19.58
2018-08-31T16:22:26.112Z,19.54
2018-08-31T16:25:28.402Z,19.35
2018-08-31T16:28:30.611Z,19.19
2018-08-31T16:31:32.913Z,19.13
2018-08-31T16:34:35.154Z,19.30
2018-08-31T16:37:37.576Z,19.34
2018-08-31T16:40:39.777Z,19.38
2018-08-31T16:43:41.961Z,19.41
2018-08-31T16:46:44.157Z,19.32
2018-08-31T16:49:46.476Z,19.55
2018-08-31T16:52:48.647Z,19.65
2018-08-31T16:55:50.902Z,19.78
2018-08-31T16:58:53.135Z,19.66
2018-08-31T17:01:55.497Z,19.53
2018-08-31T17:04:58.136Z,19.41
2018-08-31T17:08:00.465Z,19.08
2018-08-31T17:11:02.752Z,18.81
2018-08-31T17:14:05.046Z,18.64
2018-08-31T17:17:07.319Z,18.50
2018-08-31T17:20:09.562Z,18.44
2018-08-31T17:23:11.827Z,18.21
2018-08-31T17:26:20.004Z,18.12
2018-08-31T17:29:28.058Z,17.87
2018-08-31T17:32:36.012Z,17.67
2018-08-31T17:35:43.947Z,17.51
2018-08-31T17:38:46.119Z,17.42
2018-08-31T17:41:48.399Z,17.27
2018-08-31T17:44:51.763Z,16.91
2018-08-31T17:47:54.004Z,16.60
2018-08-31T17:50:56.268Z,16.47
2018-08-31T17:53:58.544Z,16.22
2018-08-31T17:57:00.895Z,15.95
2018-08-31T18:00:03.258Z,15.75
2018-08-31T18:03:05.437Z,15.68
2018-08-31T18:06:07.605Z,15.54
2018-08-31T18:09:09.910Z,15.35
2018-08-31T18:12:12.108Z,15.18
2018-08-31T18:15:14.294Z,15.01
2018-08-31T18:18:16.580Z,14.86
2018-08-31T18:21:18.834Z,14.71
2018-08-31T18:24:21.265Z,14.55
2018-08-31T18:27:23.498Z,14.39
2018-08-31T18:30:25.740Z,14.30
2018-08-31T18:33:27.944Z,14.22
2018-08-31T18:36:30.193Z,14.10
2018-08-31T18:39:32.475Z,14.03
2018-08-31T18:42:34.780Z,13.96
2018-08-31T18:45:37.073Z,13.87
2018-08-31T18:48:39.391Z,13.77
2018-08-31T18:51:41.685Z,13.68
2018-08-31T18:54:43.906Z,13.56
2018-08-31T18:57:46.230Z,13.42
2018-08-31T19:00:48.539Z,13.32
2018-08-31T19:03:50.999Z,13.21
2018-08-31T19:06:53.278Z,13.06
2018-08-31T19:09:55.589Z,12.90
2018-08-31T19:12:57.886Z,12.71
2018-08-31T19:16:00.046Z,12.57
2018-08-31T19:19:02.320Z,12.45
2018-08-31T19:22:04.684Z,12.34
2018-08-31T19:25:07.040Z,12.24
2018-08-31T19:28:09.256Z,12.13
2018-08-31T19:31:11.578Z,11.98
2018-08-31T19:34:13.809Z,11.84
2018-08-31T19:37:16.029Z,11.70
2018-08-31T19:40:18.228Z,11.58
2018-08-31T19:43:20.379Z,11.43
2018-08-31T19:46:22.612Z,11.23
2018-08-31T19:49:24.997Z,11.03
2018-08-31T19:52:27.282Z,10.93
2018-08-31T19:55:29.624Z,10.92
2018-08-31T19:58:31.890Z,11.00
2018-08-31T20:01:34.214Z,11.00
2018-08-31T20:05:39.511Z,10.96
2018-08-31T20:08:41.709Z,10.99
2018-08-31T20:11:43.916Z,10.99
2018-08-31T20:14:46.276Z,10.91
2018-08-31T20:17:49.553Z,10.80
2018-08-31T20:20:51.817Z,10.68
2018-08-31T20:23:54.175Z,10.57
2018-08-31T20:26:56.605Z,10.52
2018-08-31T20:29:59.034Z,10.45
2018-08-31T20:33:01.368Z,10.43
2018-08-31T20:36:03.863Z,10.36
2018-08-31T20:39:08.411Z,10.37
2018-08-31T20:42:10.857Z,10.44
2018-08-31T20:45:13.317Z,10.46
2018-08-31T20:48:15.591Z,10.42
2018-08-31T20:51:17.939Z,10.46
2018-08-31T20:54:20.304Z,10.46
2018-08-31T20:57:22.592Z,10.41
2018-08-31T21:00:24.993Z,10.32
2018-08-31T21:03:27.316Z,10.23
2018-08-31T21:06:30.192Z,10.17
2018-08-31T21:09:32.359Z,10.12
2018-08-31T21:12:34.610Z,10.15
2018-08-31T21:15:36.913Z,10.17
2018-08-31T21:18:39.166Z,10.12
2018-08-31T21:21:41.516Z,10.09
2018-08-31T21:24:43.772Z,10.04
2018-08-31T21:27:46.059Z,9.95
2018-08-31T21:30:48.330Z,9.86
2018-08-31T21:33:51.401Z,9.75
2018-08-31T21:36:53.683Z,9.68
2018-08-31T21:39:55.927Z,9.58
2018-08-31T21:42:58.309Z,9.46
2018-08-31T21:46:00.608Z,9.37
2018-08-31T21:49:03.253Z,9.25
2018-08-31T21:52:05.758Z,9.18
2018-08-31T21:55:08.078Z,9.19
2018-08-31T21:58:10.275Z,9.22
2018-08-31T22:01:18.240Z,9.26
2018-08-31T22:04:20.956Z,9.24
2018-08-31T22:07:23.135Z,9.20
2018-08-31T22:10:25.392Z,9.13
2018-08-31T22:13:27.679Z,9.02
2018-08-31T22:16:29.881Z,8.95
2018-08-31T22:19:32.101Z,8.91
2018-08-31T22:22:34.492Z,8.92
2018-08-31T22:26:55.528Z,9.03
2018-08-31T22:29:57.730Z,9.10
2018-08-31T22:32:59.887Z,9.03
2018-08-31T22:36:02.183Z,8.99
2018-08-31T22:39:06.609Z,9.03
2018-08-31T22:42:08.807Z,9.04
2018-08-31T22:45:11.890Z,9.10
2018-08-31T22:48:14.036Z,9.08
2018-08-31T22:51:16.280Z,8.99
2018-08-31T22:54:18.512Z,8.95
2018-08-31T22:57:20.811Z,8.90
2018-08-31T23:00:23.162Z,8.81
2018-08-31T23:03:25.504Z,8.73
2018-08-31T23:06:27.761Z,8.68
2018-08-31T23:09:29.948Z,8.66
2018-08-31T23:12:32.243Z,8.66
2018-08-31T23:15:34.512Z,8.70
2018-08-31T23:18:36.746Z,8.68
2018-08-31T23:21:38.989Z,8.66
2018-08-31T23:24:41.266Z,8.69
2018-08-31T23:27:43.543Z,8.65
2018-08-31T23:30:45.959Z,8.59
2018-08-31T23:33:48.360Z,8.55
2018-08-31T23:36:50.569Z,8.51
2018-08-31T23:39:52.821Z,8.47
2018-08-31T23:42:55.166Z,8.45
2018-08-31T23:45:57.673Z,8.34
2018-08-31T23:48:59.835Z,8.22
2018-08-31T23:52:02.085Z,8.19
2018-08-31T23:55:04.392Z,8.22
2018-08-31T23:58:06.743Z,8.31
